Opelousas, LA

6:29 PM CDT on August 28, 2014 (GMT -0500)
Gulino Street | Change Station
CLOSE
Current Station
Personal Weather Station
Location: Opelousas, LA
Elevation: 89 ft
Nearby Weather Stations

Elev 89 ft 30.55 °N, 92.07 °W | Updated 2 seconds ago

Clear
Clear
86.2 °F
Feels Like 95 °F
N
0.0
Wind Variable Wind from South
Gusts 0.0 mph

Today
High -- | Low -- °F
--% Chance of Precip.
Yesterday
High -- | Low -- °F
Precip. -- in
6:42 AM 7:35 PM
Waxing Crescent, 10% visible
Pressure 29.91 in
Visibility 10.0 miles
Clouds Clear
Heat Index 95 °F
Dew Point 74 °F
Humidity 68%
Rainfall 0.15 in
Snow Depth Not available.
UV 1 out of 12
Pollen 7.90 out of 12
Air Quality Not available.
Flu Activity Not available.
METAR KOPL 282315Z AUTO 00000KT 10SM CLR 30/23 A2991 RMK AO2 LTG DSNT SE T03000231

More Conditions Fewer Conditions

Pressure 29.91 in
Visibility 10.0 miles
Clouds Clear
Heat Index 95 °F
Dew Point 74 °F
Humidity 68%
Rainfall 0.15 in
Snow Depth Not available.
UV 1 out of 12
Pollen 7.90 out of 12
Air Quality Not available.
Flu Activity Not available.
METAR KOPL 282315Z AUTO 00000KT 10SM CLR 30/23 A2991 RMK AO2 LTG DSNT SE T03000231

More Conditions Fewer Conditions

Nowcast | as of 4:26 PM CDT on August 28, 2014

Isolated thunderstorms will continue across the region through 7 PM. The heaviest rainfall is expected near Oakdale and Crowley. Rainfall will range from a quarter to a half inch. The activity will decrease during the late afternoon.

×

10-Day Weather Forecast

Almanac

Astronomy

Aug. 28, 2014 Rise Set
Actual Time 6:42 AM CDT 7:35 PM CDT
Civil Twilight 6:17 AM CDT 8:00 PM CDT
Nautical Twilight 5:48 AM CDT 8:29 PM CDT
Astronomical Twilight 5:18 AM CDT 8:59 PM CDT
Moon 9:20 AM CDT 9:16 PM CDT
Length of Visible Light 13h 42m
Length of Day
12h 53m
Tomorrow will be 1m 44s shorter.
Waxing Crescent, 10% of the Moon is Illuminated
Today
Waxing Crescent
Sep 2
First Quarter
Sep 8
Full
Sep 15
Last Quarter
Sep 24
New

Today's Extremes

State Highs State Lows

Community

WunderPhotos

Upload Photos

1,748,104 photos uploaded!

Nearby

Snow Depth

Station Depth Elevation
No new snow has been reported.

Earthquake Activity

City Distance Mag. Time & Date
No recent earthquake activity has been reported nearby.
Minimum magnitude displayed is 2.5.

Coastal Water Temperatures

Place Temperature
No Stations Reporting

Nearby Weather Stations